Licenciado Benito Juarez International Airport
MMMX : now visible

Airfield :











YOU CAN JOIN US ON...

 
LOGIN :

Register | Disclaimer

   EN    FR    IT 

 









Legend :    VFR   Marginal VFR   IFR   Intensive IFR   Very Intensive IFR
Visi :
Ceiling :
>= 8 km
>= 3000ft
5 to 8 km
1000 to 3000 ft
1500m to 5 km
500 to 1000 ft
800 to 1500m
200 to 500 ft
< 800m
< 200 ft
Symbols :   Thunderstorms  Fog  Heavy snow  Heavy precipitations  Wind > 20 kt






- Airport Elevation : 7316 ft
- IATA code : MEX


MMMX - Licenciado Benito Juarez International

CURRENT METAR :
  • 041645Z 28006KT 6SM BKN020 BKN080 20/13 A3044 NOSIG RMK 8/830 HZY

EXPIRED METARs :
  • 041545Z 28005KT 6SM BKN020 OVC080 19/12 A3044 NOSIG RMK 8/87/ HZY BINOVC
  • 041445Z 00000KT 5SM BKN015 OVC080 17/13 A3043 NOSIG RMK SLP153 52011 907 8/57/ HZY BINOVC

TAF TAF MMMX
Valid from the 04 at 12:00 until the 05 at 18:00 UTC


041004Z 0412/0518 13005KT 5SM HZ SCT020 BKN080 TX23/0421Z TN15/0412Z
TEMPO 0412/0415 3SM BR HZ BKN015
FM041600 13005KT 5SM HZ SCT015 BKN080
FM041800 13010KT P6SM SCT020 BKN200
TEMPO 0422/0502 5SM TSRA BKN020CB
FM050200 13005KT 6SM HZ SCT020 BKN080
TEMPO 0502/0506 6SM RA BKN020CB
FM051800 13010KT P6SM SCT020 BKN100
MMFR FIR / North America



MET'MAP, your aeronautical weather chart ! - Copyright ORBIFLY December 2007 - Disclaimer

ORBIFLY MET'MAP TEAM :

Programming & Development : Alexandra Zaïnal
Concept & original design : Baudouin d'Aumeries
Assistance for programming : Marc-Olivier Méhu
Technical & hardware support : Manuel Goepfert

Contact : metmap@orbifly.com




SOURCES & CREDITS :

   NOAA       Earth
Advisory